createdAt,value
2018-03-27T00:00:03.405Z,13.70
2018-03-27T00:01:10.338Z,10.30
2018-03-27T00:02:17.095Z,14.10
2018-03-27T00:03:23.917Z,12.80
2018-03-27T00:04:30.840Z,11.60
2018-03-27T00:05:37.626Z,11.20
2018-03-27T00:06:44.380Z,16.70
2018-03-27T00:07:51.117Z,12.50
2018-03-27T00:08:57.876Z,12.20
2018-03-27T00:10:04.642Z,11.70
2018-03-27T00:11:11.434Z,15.50
2018-03-27T00:12:18.304Z,11.00
2018-03-27T00:13:25.060Z,12.80
2018-03-27T00:14:31.927Z,12.00
2018-03-27T00:15:38.704Z,10.20
2018-03-27T00:16:45.436Z,12.40
2018-03-27T00:17:52.202Z,10.00
2018-03-27T00:18:58.959Z,10.30
2018-03-27T00:20:05.790Z,10.60
2018-03-27T00:21:12.585Z,11.40
2018-03-27T00:22:19.326Z,8.70
2018-03-27T00:23:26.196Z,9.60
2018-03-27T00:24:32.988Z,8.20
2018-03-27T00:25:40.025Z,8.60
2018-03-27T00:26:46.779Z,9.90
2018-03-27T00:27:53.736Z,7.80
2018-03-27T00:29:00.890Z,12.70
2018-03-27T00:30:08.066Z,7.90
2018-03-27T00:31:15.088Z,10.00
2018-03-27T00:32:22.139Z,9.60
2018-03-27T00:33:29.161Z,10.10
2018-03-27T00:34:36.188Z,9.10
2018-03-27T00:35:43.273Z,9.00
2018-03-27T00:36:50.249Z,13.40
2018-03-27T00:37:57.117Z,9.40
2018-03-27T00:39:04.153Z,8.60
2018-03-27T00:40:10.980Z,8.10
2018-03-27T00:41:17.555Z,8.70
2018-03-27T00:42:24.357Z,8.80
2018-03-27T00:43:31.248Z,8.40
2018-03-27T00:44:38.014Z,12.10
2018-03-27T00:45:44.789Z,10.50
2018-03-27T00:46:51.546Z,9.30
2018-03-27T00:47:58.350Z,9.00
2018-03-27T00:49:05.113Z,9.90
2018-03-27T00:50:11.872Z,8.50
2018-03-27T00:51:18.619Z,8.30
2018-03-27T00:52:25.413Z,10.90
2018-03-27T00:53:32.151Z,11.70
2018-03-27T00:54:38.920Z,10.40
2018-03-27T00:55:45.669Z,7.50
2018-03-27T00:56:52.517Z,7.40
2018-03-27T00:57:59.248Z,11.70
2018-03-27T00:59:06.000Z,9.10
2018-03-27T01:00:12.751Z,9.10
2018-03-27T01:01:19.632Z,8.20
2018-03-27T01:02:26.375Z,10.30
2018-03-27T01:03:33.158Z,9.70
2018-03-27T01:04:39.920Z,12.10
2018-03-27T01:05:46.812Z,7.80
2018-03-27T01:06:53.580Z,8.80
2018-03-27T01:08:00.317Z,8.60
2018-03-27T01:09:07.248Z,8.90
2018-03-27T01:10:14.016Z,9.70
2018-03-27T01:11:20.754Z,9.10
2018-03-27T01:12:27.581Z,9.60
2018-03-27T01:13:34.353Z,9.20
2018-03-27T01:14:41.089Z,8.50
2018-03-27T01:15:47.841Z,7.60
2018-03-27T01:16:54.671Z,7.10
2018-03-27T01:18:01.443Z,7.50
2018-03-27T01:19:08.276Z,7.40
2018-03-27T01:20:15.068Z,10.10
2018-03-27T01:21:21.880Z,9.00
2018-03-27T01:22:28.676Z,10.70
2018-03-27T01:23:35.569Z,8.20
2018-03-27T01:24:42.320Z,10.20
2018-03-27T01:25:49.157Z,8.40
2018-03-27T01:26:55.916Z,8.10
2018-03-27T01:28:02.738Z,13.70
2018-03-27T01:29:09.473Z,8.70
2018-03-27T01:30:16.338Z,10.40
2018-03-27T01:31:23.080Z,9.70
2018-03-27T01:32:29.862Z,8.70
2018-03-27T01:33:36.622Z,7.70
2018-03-27T01:34:43.373Z,7.90
2018-03-27T01:35:50.156Z,8.30
2018-03-27T01:36:56.961Z,6.80
2018-03-27T01:38:03.789Z,9.50
2018-03-27T01:39:10.543Z,8.40
2018-03-27T01:40:17.293Z,10.80
2018-03-27T01:41:24.044Z,10.00
2018-03-27T01:42:30.867Z,12.20
2018-03-27T01:43:37.618Z,9.70
2018-03-27T01:44:44.398Z,9.10
2018-03-27T01:45:51.285Z,7.40
2018-03-27T01:46:58.048Z,8.50
2018-03-27T01:48:04.849Z,7.90
2018-03-27T01:49:11.691Z,7.40
2018-03-27T01:50:18.401Z,9.00
2018-03-27T01:51:25.171Z,9.50
2018-03-27T01:52:31.950Z,8.70
2018-03-27T01:53:38.765Z,8.70
2018-03-27T01:54:45.477Z,8.30
2018-03-27T01:55:52.219Z,9.10
2018-03-27T01:56:58.997Z,8.60
2018-03-27T01:58:05.868Z,10.40
2018-03-27T01:59:12.618Z,7.70
2018-03-27T02:00:19.397Z,7.70
2018-03-27T02:01:26.113Z,9.20
2018-03-27T02:02:32.935Z,9.50
2018-03-27T02:03:39.688Z,9.30
2018-03-27T02:04:46.423Z,9.10
2018-03-27T02:05:53.375Z,7.90
2018-03-27T02:07:00.132Z,9.20
2018-03-27T02:08:06.928Z,9.50
2018-03-27T02:09:13.784Z,8.70
2018-03-27T02:10:20.551Z,9.10
2018-03-27T02:11:27.290Z,9.10
2018-03-27T02:12:34.011Z,9.00
2018-03-27T02:13:41.002Z,10.80
2018-03-27T02:14:47.724Z,10.00
2018-03-27T02:15:54.768Z,8.50
2018-03-27T02:17:01.758Z,10.10
2018-03-27T02:18:08.731Z,11.10
2018-03-27T02:19:15.835Z,9.60
2018-03-27T02:20:22.683Z,7.90
2018-03-27T02:21:29.464Z,8.90
2018-03-27T02:22:36.233Z,10.40
2018-03-27T02:23:43.161Z,8.20
2018-03-27T02:24:50.113Z,8.40
2018-03-27T02:25:56.908Z,8.40
2018-03-27T02:27:03.672Z,7.70
2018-03-27T02:28:10.432Z,11.50
2018-03-27T02:29:17.196Z,8.40
2018-03-27T02:30:23.961Z,8.70
2018-03-27T02:31:30.710Z,7.70
2018-03-27T02:32:37.485Z,10.10
2018-03-27T02:33:44.264Z,7.00
2018-03-27T02:34:51.096Z,7.60
2018-03-27T02:35:57.834Z,7.40
2018-03-27T02:37:04.557Z,9.50
2018-03-27T02:38:11.309Z,9.00
2018-03-27T02:39:18.145Z,9.20
2018-03-27T02:40:24.898Z,9.70
2018-03-27T02:41:31.666Z,9.90
2018-03-27T02:42:38.412Z,9.40
2018-03-27T02:43:45.222Z,9.30
2018-03-27T02:44:52.002Z,9.30
2018-03-27T02:45:58.757Z,9.90
2018-03-27T02:47:05.668Z,9.20
2018-03-27T02:48:12.431Z,8.30
2018-03-27T02:49:19.233Z,8.20
2018-03-27T02:50:25.974Z,7.10
2018-03-27T02:51:32.757Z,10.90
2018-03-27T02:52:39.553Z,11.60
2018-03-27T02:53:46.334Z,7.70
2018-03-27T02:54:53.235Z,9.10
2018-03-27T02:55:59.989Z,10.70
2018-03-27T02:57:06.798Z,7.80
2018-03-27T02:58:13.638Z,6.90
2018-03-27T02:59:20.420Z,9.00
2018-03-27T03:00:27.206Z,7.90
2018-03-27T03:01:33.944Z,10.30
2018-03-27T03:02:40.745Z,8.50
2018-03-27T03:03:47.490Z,8.10
2018-03-27T03:04:54.295Z,9.60
2018-03-27T03:06:01.158Z,9.30
2018-03-27T03:07:07.892Z,8.30
2018-03-27T03:08:14.678Z,9.10
2018-03-27T03:09:21.440Z,8.10
2018-03-27T03:10:28.241Z,8.30
2018-03-27T03:11:35.017Z,7.10
2018-03-27T03:12:41.792Z,7.90
2018-03-27T03:13:48.650Z,8.00
2018-03-27T03:14:55.403Z,7.50
2018-03-27T03:16:02.168Z,8.70
2018-03-27T03:17:08.975Z,9.30
2018-03-27T03:18:15.724Z,10.50
2018-03-27T03:19:22.478Z,9.40
2018-03-27T03:20:29.258Z,8.10
2018-03-27T03:21:36.005Z,9.90
2018-03-27T03:22:42.806Z,11.40
2018-03-27T03:23:49.512Z,9.20
2018-03-27T03:24:56.397Z,9.20
2018-03-27T03:26:03.269Z,8.50
2018-03-27T03:27:10.020Z,8.80
2018-03-27T03:28:16.814Z,10.20
2018-03-27T03:29:23.656Z,12.50
2018-03-27T03:30:30.374Z,9.50
2018-03-27T03:31:37.149Z,7.80
2018-03-27T03:32:44.061Z,9.50
2018-03-27T03:33:50.780Z,14.70
2018-03-27T03:34:57.545Z,8.60
2018-03-27T03:36:04.296Z,10.20
2018-03-27T03:37:11.126Z,11.90
2018-03-27T03:38:17.937Z,9.90
2018-03-27T03:39:24.931Z,13.20
2018-03-27T03:40:31.686Z,9.80
2018-03-27T03:41:38.505Z,10.60
2018-03-27T03:42:45.354Z,10.90
2018-03-27T03:43:52.098Z,11.10
2018-03-27T03:44:58.902Z,11.90
2018-03-27T03:46:05.937Z,11.10
2018-03-27T03:47:12.949Z,8.30
2018-03-27T03:48:19.812Z,9.60
2018-03-27T03:49:26.596Z,12.00
2018-03-27T03:50:33.342Z,11.30
2018-03-27T03:51:40.291Z,10.00
2018-03-27T03:52:47.175Z,8.80
2018-03-27T03:53:54.268Z,10.40
2018-03-27T03:55:01.154Z,9.30
2018-03-27T03:56:08.006Z,9.00
2018-03-27T03:57:14.949Z,9.70
2018-03-27T03:58:21.844Z,10.70
2018-03-27T03:59:28.669Z,9.30
2018-03-27T04:00:35.530Z,12.30
2018-03-27T04:01:42.240Z,10.70
2018-03-27T04:02:49.005Z,14.20
2018-03-27T04:03:55.766Z,10.30
2018-03-27T04:05:02.518Z,13.30
2018-03-27T04:06:09.300Z,12.60
2018-03-27T04:07:16.054Z,11.20
2018-03-27T04:08:22.793Z,12.40
2018-03-27T04:09:29.718Z,13.10
2018-03-27T04:10:36.453Z,10.60
2018-03-27T04:11:43.206Z,12.90
2018-03-27T04:12:49.966Z,13.00
2018-03-27T04:13:56.784Z,15.20
2018-03-27T04:15:03.596Z,13.30
2018-03-27T04:16:10.333Z,9.70
2018-03-27T04:17:17.061Z,12.60
2018-03-27T04:18:23.873Z,14.40
2018-03-27T04:19:30.603Z,11.90
2018-03-27T04:20:37.365Z,13.60
2018-03-27T04:21:44.109Z,11.90
2018-03-27T04:22:50.896Z,12.70
2018-03-27T04:23:57.637Z,11.00
2018-03-27T04:25:04.444Z,13.00
2018-03-27T04:26:11.320Z,10.70
2018-03-27T04:27:18.166Z,11.60
2018-03-27T04:28:25.040Z,13.30
2018-03-27T04:29:31.769Z,11.20
2018-03-27T04:30:38.503Z,13.10
2018-03-27T04:31:45.225Z,11.70
2018-03-27T04:32:51.983Z,11.80
2018-03-27T04:33:58.796Z,11.20
2018-03-27T04:35:05.545Z,9.30
2018-03-27T04:36:12.305Z,11.50
2018-03-27T04:37:19.017Z,17.20
2018-03-27T04:38:25.865Z,13.80
2018-03-27T04:39:32.617Z,11.10
2018-03-27T04:40:39.402Z,12.70
2018-03-27T04:41:46.324Z,11.80
2018-03-27T04:42:53.081Z,13.80
2018-03-27T04:43:59.842Z,11.50
2018-03-27T04:45:06.664Z,10.30
2018-03-27T04:46:13.432Z,11.30
2018-03-27T04:47:20.184Z,11.40
2018-03-27T04:48:26.934Z,11.10
2018-03-27T04:49:33.726Z,11.30
2018-03-27T04:50:40.468Z,11.90
2018-03-27T04:51:47.244Z,12.10
2018-03-27T04:52:53.980Z,12.70
2018-03-27T04:54:00.808Z,15.30
2018-03-27T04:55:07.570Z,13.30
2018-03-27T04:56:14.302Z,14.50
2018-03-27T04:57:21.065Z,12.40
2018-03-27T04:58:27.890Z,13.30
2018-03-27T04:59:34.632Z,12.10
2018-03-27T05:00:41.459Z,10.80
2018-03-27T05:01:48.284Z,12.50
2018-03-27T05:02:55.077Z,11.40
2018-03-27T05:04:01.910Z,14.40
2018-03-27T05:05:08.722Z,13.10
2018-03-27T05:06:15.500Z,12.40
2018-03-27T05:07:22.298Z,16.60
2018-03-27T05:08:29.137Z,11.00
2018-03-27T05:09:35.900Z,12.30
2018-03-27T05:10:42.665Z,11.90
2018-03-27T05:11:49.399Z,13.60
2018-03-27T05:12:56.223Z,14.20
2018-03-27T05:14:02.974Z,12.50
2018-03-27T05:15:09.907Z,12.60
2018-03-27T05:16:16.653Z,12.10
2018-03-27T05:17:23.397Z,12.20
2018-03-27T05:18:30.177Z,12.80
2018-03-27T05:19:36.919Z,12.10
2018-03-27T05:20:43.769Z,14.00
2018-03-27T05:21:50.865Z,13.10
2018-03-27T05:22:57.592Z,12.80
2018-03-27T05:24:04.360Z,10.50
2018-03-27T05:25:11.136Z,10.00
2018-03-27T05:26:17.925Z,10.90
2018-03-27T05:27:24.676Z,10.10
2018-03-27T05:28:31.477Z,13.30
2018-03-27T05:29:38.284Z,14.20
2018-03-27T05:30:45.081Z,11.30
2018-03-27T05:31:51.865Z,11.40
2018-03-27T05:32:58.676Z,11.90
2018-03-27T05:34:05.512Z,12.20
2018-03-27T05:35:12.276Z,10.70
2018-03-27T05:36:19.070Z,16.20
2018-03-27T05:37:25.836Z,12.50
2018-03-27T05:38:32.580Z,11.60
2018-03-27T05:39:39.329Z,13.00
2018-03-27T05:40:46.155Z,14.70
2018-03-27T05:41:52.884Z,13.60
2018-03-27T05:42:59.642Z,17.40
2018-03-27T05:44:06.482Z,14.90
2018-03-27T05:45:13.218Z,15.00
2018-03-27T05:46:20.001Z,15.40
2018-03-27T05:47:26.752Z,14.40
2018-03-27T05:48:33.489Z,16.30
2018-03-27T05:49:40.291Z,14.90
2018-03-27T05:50:47.181Z,14.40
2018-03-27T05:51:54.061Z,14.70
2018-03-27T05:53:00.864Z,13.20
2018-03-27T05:54:07.620Z,13.80
2018-03-27T05:55:14.383Z,13.80
2018-03-27T05:56:21.167Z,14.00
2018-03-27T05:57:27.907Z,16.10
2018-03-27T05:58:34.644Z,11.40
2018-03-27T05:59:41.393Z,15.40
2018-03-27T06:00:48.204Z,13.90
2018-03-27T06:01:54.936Z,14.60
2018-03-27T06:03:01.747Z,15.00
2018-03-27T06:04:08.633Z,15.40
2018-03-27T06:05:15.367Z,16.40
2018-03-27T06:06:22.113Z,16.70
2018-03-27T06:07:28.887Z,15.40
2018-03-27T06:08:35.809Z,17.50
2018-03-27T06:09:42.548Z,16.30
2018-03-27T06:10:49.315Z,16.80
2018-03-27T06:11:56.136Z,16.00
2018-03-27T06:13:02.893Z,17.30
2018-03-27T06:14:09.721Z,15.70
2018-03-27T06:15:16.532Z,13.90
2018-03-27T06:16:23.506Z,16.40
2018-03-27T06:17:30.330Z,17.40
2018-03-27T06:18:37.153Z,15.00
2018-03-27T06:19:44.176Z,15.50
2018-03-27T06:20:50.963Z,15.50
2018-03-27T06:21:57.712Z,14.30
2018-03-27T06:23:04.548Z,15.10
2018-03-27T06:24:11.272Z,16.30
2018-03-27T06:25:18.016Z,15.00
2018-03-27T06:26:24.745Z,17.90
2018-03-27T06:27:31.617Z,16.70
2018-03-27T06:28:38.364Z,17.50
2018-03-27T06:29:45.116Z,21.20
2018-03-27T06:30:51.841Z,16.70
2018-03-27T06:31:58.656Z,17.70
2018-03-27T06:33:05.401Z,21.20
2018-03-27T06:34:12.153Z,19.20
2018-03-27T06:35:18.893Z,19.70
2018-03-27T06:36:25.711Z,15.50
2018-03-27T06:37:32.474Z,16.30
2018-03-27T06:38:39.231Z,17.20
2018-03-27T06:39:45.956Z,16.50
2018-03-27T06:40:52.768Z,19.20
2018-03-27T06:41:59.477Z,15.70
2018-03-27T06:43:06.224Z,19.10
2018-03-27T06:44:12.961Z,16.60
2018-03-27T06:45:19.712Z,19.70
2018-03-27T06:46:26.456Z,16.80
2018-03-27T06:47:33.221Z,17.00
2018-03-27T06:48:40.018Z,17.90
2018-03-27T06:49:46.885Z,14.60
2018-03-27T06:50:53.608Z,16.50
2018-03-27T06:52:00.365Z,16.90
2018-03-27T06:53:07.100Z,13.10
2018-03-27T06:54:13.837Z,17.80
2018-03-27T06:55:20.612Z,18.30
2018-03-27T06:56:27.362Z,16.70
2018-03-27T06:57:34.188Z,18.30
2018-03-27T06:58:41.000Z,20.00
2018-03-27T06:59:47.768Z,18.20
2018-03-27T07:00:54.529Z,19.20
2018-03-27T07:02:01.249Z,20.30
2018-03-27T07:03:08.103Z,21.10
2018-03-27T07:04:14.841Z,23.30
2018-03-27T07:05:21.643Z,19.40
2018-03-27T07:06:28.358Z,20.00
2018-03-27T07:07:35.129Z,20.70
2018-03-27T07:08:41.849Z,20.80
2018-03-27T07:09:48.618Z,17.80
2018-03-27T07:10:55.380Z,21.60
2018-03-27T07:12:02.229Z,17.80
2018-03-27T07:13:09.008Z,17.10
2018-03-27T07:14:15.780Z,17.80
2018-03-27T07:15:22.926Z,16.90
2018-03-27T07:16:29.680Z,16.70
2018-03-27T07:17:36.424Z,17.10
2018-03-27T07:18:43.143Z,15.00
2018-03-27T07:19:49.926Z,18.40
2018-03-27T07:20:56.724Z,18.80
2018-03-27T07:22:03.486Z,17.30
2018-03-27T07:23:10.192Z,20.10
2018-03-27T07:24:16.942Z,18.00
2018-03-27T07:25:23.713Z,17.00
2018-03-27T07:26:30.568Z,17.80
2018-03-27T07:27:37.305Z,17.50
2018-03-27T07:28:44.079Z,16.60
2018-03-27T07:29:50.808Z,20.40
2018-03-27T07:30:57.645Z,21.50
2018-03-27T07:32:04.388Z,18.60
2018-03-27T07:33:11.104Z,17.90
2018-03-27T07:34:17.845Z,14.30
2018-03-27T07:35:24.797Z,17.20
2018-03-27T07:36:31.566Z,18.40
2018-03-27T07:37:38.318Z,17.90
2018-03-27T07:38:45.080Z,15.80
2018-03-27T07:39:51.788Z,20.00
2018-03-27T07:40:58.557Z,17.10
2018-03-27T07:42:05.296Z,19.50
2018-03-27T07:43:12.144Z,17.10
2018-03-27T07:44:18.873Z,17.80
2018-03-27T07:45:25.608Z,22.70
2018-03-27T07:46:32.381Z,23.90
2018-03-27T07:47:39.181Z,20.80
2018-03-27T07:48:45.900Z,19.90
2018-03-27T07:49:52.701Z,19.40
2018-03-27T07:50:59.446Z,21.00
2018-03-27T07:52:06.228Z,22.00
2018-03-27T07:53:12.994Z,24.30
2018-03-27T07:54:19.732Z,25.60
2018-03-27T07:55:26.456Z,25.60
2018-03-27T07:56:33.300Z,23.60
2018-03-27T07:57:40.028Z,21.20
2018-03-27T07:58:46.791Z,20.00
2018-03-27T07:59:53.537Z,22.10
2018-03-27T08:01:00.412Z,22.10
2018-03-27T08:02:07.283Z,24.00
2018-03-27T08:03:14.003Z,21.10
2018-03-27T08:04:20.790Z,21.10
2018-03-27T08:05:27.507Z,17.20
2018-03-27T08:06:34.256Z,19.30
2018-03-27T08:07:41.137Z,26.70
2018-03-27T08:08:47.868Z,20.00
2018-03-27T08:09:54.609Z,21.30
2018-03-27T08:11:01.689Z,22.70
2018-03-27T08:12:08.390Z,20.20
2018-03-27T08:13:15.127Z,17.00
2018-03-27T08:14:21.861Z,21.50
2018-03-27T08:15:28.684Z,18.90
2018-03-27T08:16:35.427Z,18.80
2018-03-27T08:17:42.221Z,17.90
2018-03-27T08:18:48.965Z,16.40
2018-03-27T08:19:55.732Z,17.70
2018-03-27T08:21:02.568Z,18.10
2018-03-27T08:22:09.327Z,17.70
2018-03-27T08:23:16.170Z,17.80
2018-03-27T08:24:23.007Z,18.10
2018-03-27T08:25:29.737Z,17.80
2018-03-27T08:26:36.593Z,18.90
2018-03-27T08:27:43.341Z,20.20
2018-03-27T08:28:50.163Z,20.40
2018-03-27T08:29:56.999Z,17.90
2018-03-27T08:31:03.731Z,17.60
2018-03-27T08:32:10.450Z,20.20
2018-03-27T08:33:17.225Z,17.00
2018-03-27T08:34:24.140Z,21.20
2018-03-27T08:35:30.876Z,17.50
2018-03-27T08:36:37.621Z,20.50
2018-03-27T08:37:44.457Z,19.90
2018-03-27T08:38:51.227Z,16.40
2018-03-27T08:39:58.011Z,23.00
2018-03-27T08:41:04.861Z,18.60
2018-03-27T08:42:11.596Z,19.80
2018-03-27T08:43:18.438Z,20.30
2018-03-27T08:44:25.112Z,19.70
2018-03-27T08:45:31.928Z,21.20
2018-03-27T08:46:38.692Z,20.10
2018-03-27T08:47:45.411Z,19.60
2018-03-27T08:48:52.188Z,19.00
2018-03-27T08:49:58.974Z,18.40
2018-03-27T08:51:05.772Z,19.40
2018-03-27T08:52:12.542Z,21.20
2018-03-27T08:53:19.632Z,21.10
2018-03-27T08:54:26.397Z,18.80
2018-03-27T08:55:33.189Z,22.00
2018-03-27T08:56:39.929Z,20.10
2018-03-27T08:57:46.687Z,20.30
2018-03-27T08:58:53.456Z,19.80
2018-03-27T09:00:00.230Z,20.10
2018-03-27T09:01:07.110Z,21.00
2018-03-27T09:02:13.841Z,26.40
2018-03-27T09:03:20.657Z,19.60
2018-03-27T09:04:27.414Z,22.40
2018-03-27T09:05:34.179Z,26.40
2018-03-27T09:06:40.913Z,21.20
2018-03-27T09:07:47.705Z,23.20
2018-03-27T09:08:54.443Z,24.00
2018-03-27T09:10:01.267Z,27.30
2018-03-27T09:11:08.152Z,24.30
2018-03-27T09:12:14.897Z,23.50
2018-03-27T09:13:21.664Z,26.20
2018-03-27T09:14:28.420Z,31.60
2018-03-27T09:15:35.324Z,27.20
2018-03-27T09:16:42.068Z,27.10
2018-03-27T09:17:48.833Z,29.90
2018-03-27T09:18:55.662Z,29.10
2018-03-27T09:20:02.420Z,29.40
2018-03-27T09:21:09.201Z,31.40
2018-03-27T09:22:15.914Z,33.80
2018-03-27T09:23:22.799Z,32.80
2018-03-27T09:24:29.552Z,30.40
2018-03-27T09:25:36.310Z,30.60
2018-03-27T09:26:43.039Z,32.30
2018-03-27T09:27:49.929Z,35.30
2018-03-27T09:28:56.672Z,33.50
2018-03-27T09:30:03.453Z,39.10
2018-03-27T09:31:10.243Z,36.40
2018-03-27T09:32:16.994Z,36.50
2018-03-27T09:33:23.770Z,33.00
2018-03-27T09:34:30.501Z,36.10
2018-03-27T09:35:37.348Z,35.70
2018-03-27T09:36:44.164Z,42.70
2018-03-27T09:37:50.889Z,34.40
2018-03-27T09:38:57.607Z,37.80
2018-03-27T09:40:04.435Z,42.40
2018-03-27T09:41:11.204Z,41.40
2018-03-27T09:42:17.974Z,39.80
2018-03-27T09:43:24.734Z,36.30
2018-03-27T09:44:31.494Z,40.60
2018-03-27T09:45:38.282Z,38.50
2018-03-27T09:46:45.040Z,38.50
2018-03-27T09:47:57.001Z,42.90
2018-03-27T09:49:04.022Z,37.50
2018-03-27T09:50:10.973Z,35.40
2018-03-27T09:51:12.717Z,43.50
2018-03-27T09:52:19.498Z,39.60
2018-03-27T09:53:26.235Z,39.80
2018-03-27T09:54:32.982Z,37.70
2018-03-27T09:55:39.748Z,40.30
2018-03-27T09:56:46.564Z,37.50
2018-03-27T09:57:53.321Z,37.20
2018-03-27T09:59:00.107Z,40.80
2018-03-27T10:00:06.856Z,38.20
2018-03-27T10:01:13.660Z,34.60
2018-03-27T10:02:20.469Z,36.20
2018-03-27T10:03:27.219Z,38.60
2018-03-27T10:04:33.938Z,36.40
2018-03-27T10:05:40.728Z,34.40
2018-03-27T10:06:47.486Z,37.00
2018-03-27T10:07:54.232Z,38.40
2018-03-27T10:09:01.118Z,33.40
2018-03-27T10:10:08.001Z,46.30
2018-03-27T10:11:14.762Z,36.50
2018-03-27T10:12:21.517Z,39.10
2018-03-27T10:13:28.256Z,40.10
2018-03-27T10:14:34.998Z,40.70
2018-03-27T10:15:41.730Z,39.40
2018-03-27T10:16:48.557Z,41.60
2018-03-27T10:17:55.425Z,37.90
2018-03-27T10:19:02.173Z,43.40
2018-03-27T10:20:08.926Z,41.50
2018-03-27T10:21:15.710Z,39.80
2018-03-27T10:22:22.498Z,36.90
2018-03-27T10:23:29.293Z,40.60
2018-03-27T10:24:36.036Z,36.80
2018-03-27T10:25:42.785Z,36.20
2018-03-27T10:26:49.745Z,35.20
2018-03-27T10:27:56.528Z,36.30
2018-03-27T10:29:03.285Z,36.50
2018-03-27T10:30:10.105Z,33.90
2018-03-27T10:31:16.848Z,39.00
2018-03-27T10:32:23.601Z,35.60
2018-03-27T10:33:30.369Z,34.40
2018-03-27T10:34:37.170Z,36.10
2018-03-27T10:35:43.897Z,38.90
2018-03-27T10:36:50.685Z,35.70
2018-03-27T10:37:57.444Z,36.30
2018-03-27T10:39:04.192Z,36.40
2018-03-27T10:40:10.977Z,34.60
2018-03-27T10:41:17.767Z,40.50
2018-03-27T10:42:24.517Z,39.30
2018-03-27T10:43:31.260Z,37.60
2018-03-27T10:44:38.003Z,36.80
2018-03-27T10:45:44.776Z,41.70
2018-03-27T10:46:51.610Z,36.30
2018-03-27T10:47:58.387Z,41.20
2018-03-27T10:49:05.142Z,38.80
2018-03-27T10:50:11.897Z,40.00
2018-03-27T10:51:18.695Z,38.30
2018-03-27T10:52:25.444Z,41.90
2018-03-27T10:53:32.189Z,37.90
2018-03-27T10:54:38.998Z,37.70
2018-03-27T10:55:45.761Z,38.90
2018-03-27T10:56:52.506Z,38.10
2018-03-27T10:57:59.253Z,40.90
2018-03-27T10:59:05.993Z,42.20
2018-03-27T11:00:12.801Z,35.80
2018-03-27T11:01:19.569Z,41.20
2018-03-27T11:02:26.297Z,40.60
2018-03-27T11:03:33.086Z,39.50
2018-03-27T11:04:40.124Z,40.00
2018-03-27T11:05:46.958Z,35.40
2018-03-27T11:06:53.689Z,41.90
2018-03-27T11:08:00.468Z,37.70
2018-03-27T11:09:07.258Z,38.20
2018-03-27T11:10:14.161Z,39.50
2018-03-27T11:11:20.910Z,37.40
2018-03-27T11:12:27.641Z,38.40
2018-03-27T11:13:34.505Z,40.90
2018-03-27T11:14:41.257Z,39.80
2018-03-27T11:15:48.005Z,39.60
2018-03-27T11:16:54.768Z,40.00
2018-03-27T11:18:01.545Z,42.10
2018-03-27T11:19:08.557Z,41.40
2018-03-27T11:20:15.333Z,44.20
2018-03-27T11:21:22.114Z,40.10
2018-03-27T11:22:28.844Z,40.30
2018-03-27T11:23:35.591Z,39.80
2018-03-27T11:24:42.420Z,40.50
2018-03-27T11:25:49.177Z,38.80
2018-03-27T11:26:55.961Z,43.20
2018-03-27T11:28:02.822Z,38.10
2018-03-27T11:29:09.606Z,45.20
2018-03-27T11:30:16.391Z,36.30
2018-03-27T11:31:23.126Z,41.40
2018-03-27T11:32:29.888Z,44.40
2018-03-27T11:33:36.609Z,43.70
2018-03-27T11:34:43.399Z,42.90
2018-03-27T11:35:50.149Z,45.00
2018-03-27T11:36:56.949Z,41.70
2018-03-27T11:38:03.669Z,38.10
2018-03-27T11:39:10.513Z,38.60
2018-03-27T11:40:17.266Z,36.80
2018-03-27T11:41:24.014Z,37.40
2018-03-27T11:42:30.797Z,40.50
2018-03-27T11:43:37.573Z,39.20
2018-03-27T11:44:44.296Z,35.50
2018-03-27T11:45:51.097Z,31.40
2018-03-27T11:46:57.841Z,33.50
2018-03-27T11:48:04.634Z,35.30
2018-03-27T11:49:11.362Z,37.60
2018-03-27T11:50:18.149Z,40.40
2018-03-27T11:51:24.886Z,36.10
2018-03-27T11:52:31.628Z,36.40
2018-03-27T11:53:38.389Z,31.90
2018-03-27T11:54:45.180Z,35.50
2018-03-27T11:55:51.989Z,35.30
2018-03-27T11:56:58.861Z,36.60
2018-03-27T11:58:05.620Z,34.90
2018-03-27T11:59:12.351Z,35.00
2018-03-27T12:00:19.156Z,34.60
2018-03-27T12:01:25.872Z,31.80
2018-03-27T12:02:32.713Z,30.80
2018-03-27T12:03:39.462Z,31.50
2018-03-27T12:04:46.226Z,31.70
2018-03-27T12:05:52.999Z,29.20
2018-03-27T12:06:59.785Z,27.10
2018-03-27T12:08:06.544Z,26.10
2018-03-27T12:09:13.297Z,21.60
2018-03-27T12:10:20.049Z,26.70
2018-03-27T12:11:26.866Z,22.70
2018-03-27T12:12:33.584Z,25.40
2018-03-27T12:13:40.314Z,25.50
2018-03-27T12:14:47.079Z,24.90
2018-03-27T12:15:53.831Z,22.40
2018-03-27T12:17:00.624Z,22.10
2018-03-27T12:18:07.436Z,21.30
2018-03-27T12:19:14.193Z,22.00
2018-03-27T12:20:21.047Z,22.50
2018-03-27T12:21:27.808Z,22.30
2018-03-27T12:22:34.548Z,23.60
2018-03-27T12:23:41.316Z,22.70
2018-03-27T12:24:48.154Z,24.20
2018-03-27T12:25:54.885Z,21.20
2018-03-27T12:27:01.710Z,24.10
2018-03-27T12:28:08.672Z,24.00
2018-03-27T12:29:15.384Z,19.90
2018-03-27T12:30:22.132Z,21.30
2018-03-27T12:31:28.890Z,21.90
2018-03-27T12:32:35.769Z,19.90
2018-03-27T12:33:42.528Z,18.50
2018-03-27T12:34:49.270Z,20.40
2018-03-27T12:35:56.118Z,18.70
2018-03-27T12:37:02.962Z,16.80
2018-03-27T12:38:09.728Z,15.50
2018-03-27T12:39:16.561Z,16.10
2018-03-27T12:40:23.296Z,20.90
2018-03-27T12:41:30.036Z,17.00
2018-03-27T12:42:36.855Z,16.00
2018-03-27T12:43:43.657Z,15.60
2018-03-27T12:44:50.377Z,16.70
2018-03-27T12:45:57.130Z,17.40
2018-03-27T12:47:03.923Z,16.60
2018-03-27T12:48:10.749Z,15.30
2018-03-27T12:49:17.613Z,15.40
2018-03-27T12:50:24.337Z,20.50
2018-03-27T12:51:31.190Z,18.00
2018-03-27T12:52:37.988Z,16.90
2018-03-27T12:53:44.749Z,16.20
2018-03-27T12:54:51.486Z,17.50
2018-03-27T12:55:58.293Z,16.20
2018-03-27T12:57:05.049Z,16.10
2018-03-27T12:58:11.817Z,18.60
2018-03-27T12:59:18.544Z,16.20
2018-03-27T13:00:25.346Z,17.30
2018-03-27T13:01:32.108Z,16.70
2018-03-27T13:02:38.868Z,17.50
2018-03-27T13:03:45.591Z,19.70
2018-03-27T13:04:52.432Z,18.10
2018-03-27T13:05:59.163Z,16.30
2018-03-27T13:07:05.916Z,15.50
2018-03-27T13:08:12.681Z,17.80
2018-03-27T13:09:19.518Z,16.20
2018-03-27T13:10:26.289Z,17.50
2018-03-27T13:11:33.029Z,16.80
2018-03-27T13:12:39.798Z,14.90
2018-03-27T13:13:46.601Z,17.50
2018-03-27T13:14:53.328Z,16.30
2018-03-27T13:16:00.165Z,15.30
2018-03-27T13:17:07.065Z,15.30
2018-03-27T13:18:13.845Z,15.10
2018-03-27T13:19:20.621Z,17.10
2018-03-27T13:20:27.572Z,18.20
2018-03-27T13:21:34.402Z,16.00
2018-03-27T13:22:41.237Z,16.90
2018-03-27T13:23:48.168Z,16.30
2018-03-27T13:24:55.046Z,14.60
2018-03-27T13:26:01.786Z,16.30
2018-03-27T13:27:08.627Z,14.80
2018-03-27T13:28:15.404Z,15.60
2018-03-27T13:29:22.189Z,14.50
2018-03-27T13:30:29.008Z,14.00
2018-03-27T13:31:35.762Z,14.00
2018-03-27T13:32:42.628Z,13.40
2018-03-27T13:33:49.409Z,17.00
2018-03-27T13:34:56.175Z,16.30
2018-03-27T13:36:02.978Z,15.40
2018-03-27T13:37:09.817Z,13.50
2018-03-27T13:38:16.582Z,13.70
2018-03-27T13:39:23.388Z,14.00
2018-03-27T13:40:30.185Z,14.20
2018-03-27T13:41:36.974Z,12.70
2018-03-27T13:42:43.752Z,12.70
2018-03-27T13:43:50.719Z,13.60
2018-03-27T13:44:57.506Z,15.00
2018-03-27T13:46:04.348Z,13.30
2018-03-27T13:47:11.113Z,13.20
2018-03-27T13:48:17.870Z,10.70
2018-03-27T13:49:24.670Z,11.80
2018-03-27T13:50:31.469Z,14.10
2018-03-27T13:51:38.344Z,13.40
2018-03-27T13:52:45.140Z,13.10
2018-03-27T13:53:51.973Z,14.60
2018-03-27T13:54:58.853Z,15.20
2018-03-27T13:56:05.744Z,13.80
2018-03-27T13:57:12.535Z,12.70
2018-03-27T13:58:19.301Z,14.50
2018-03-27T13:59:26.061Z,12.80
2018-03-27T14:00:32.861Z,15.10
2018-03-27T14:01:39.594Z,12.40
2018-03-27T14:02:46.325Z,14.30
2018-03-27T14:03:53.154Z,12.60
2018-03-27T14:04:59.929Z,12.50
2018-03-27T14:06:06.722Z,13.40
2018-03-27T14:07:13.559Z,17.80
2018-03-27T14:08:20.314Z,13.70
2018-03-27T14:09:27.105Z,16.10
2018-03-27T14:10:33.889Z,12.80
2018-03-27T14:11:40.662Z,14.10
2018-03-27T14:12:47.436Z,14.50
2018-03-27T14:13:54.245Z,15.20
2018-03-27T14:15:01.105Z,13.80
2018-03-27T14:16:07.922Z,14.30
2018-03-27T14:17:14.684Z,14.80
2018-03-27T14:18:21.735Z,16.10
2018-03-27T14:19:28.616Z,13.60
2018-03-27T14:20:35.360Z,14.00
2018-03-27T14:21:42.243Z,16.70
2018-03-27T14:22:49.072Z,15.00
2018-03-27T14:23:55.870Z,13.60
2018-03-27T14:25:02.613Z,16.20